Unalakleet, Alaska
Current Conditions -  °F | °C
As of 3:16 AM on Saturday 01 Nov 2014 (Local Time) from PAUN Reporting Station
Clear Clear  
Wind Chill: -2°   Ceiling: Unl
Heat Index: 18°   Visibility: 10mi
Dew Point:   Wind: 29mph
Humidity: 68%   Direction: 80°E
Pressure: 29.23"   Gusts: 36mph
Location:  63.88°N, 160.79°W
Report Text: PAUN 011116Z AUTO 08025G31KT 10SM CLR M08/M13 A2923 RMK AO1
Loading
Personal Weather Stations






























Interactive Weather Map
Tropical Storm Tracking
New forecast layout! Learn more

10-Day Weather Forecast

Advertisements
Track Severe Weather on mobile